Time;durP1;ratioP1;P1;durP2;ratioP2;P2;SDS_P1;SDS_P2;PMS_P1;PMS_P2;Temp;Humidity;BMP_temperature;BMP_pressure;BME280_temperature;BME280_humidity;BME280_pressure;Samples;Min_cycle;Max_cycle;Signal;HPM_P1;HPM_P2
2022/07/05 00:00:23;;;;;;;;;;;;;;;18.14;100.00;100265.75;3055832;19;968;-50
2022/07/05 00:01:27;;;;;;;;;;;;;;;18.13;100.00;100269.47;3056498;19;916;-49
2022/07/05 00:02:29;;;;;;;;;;;;;;;18.13;100.00;100261.34;3056069;19;930;-49
2022/07/05 00:03:34;;;;;;;;;;;;;;;18.12;100.00;100265.91;3056330;19;907;-50
2022/07/05 00:04:36;;;;;;;;;;;;;;;18.11;100.00;100266.94;3055988;19;900;-49
2022/07/05 00:05:41;;;;;;;;;;;;;;;18.10;100.00;100267.94;3055074;19;1592;-50
2022/07/05 00:08:02;;;;;;;;;;;;;;;18.06;100.00;100262.97;3055485;19;1651;-50
2022/07/05 00:09:06;;;;;;;;;;;;;;;18.03;100.00;100264.09;3056128;19;904;-50
2022/07/05 00:10:08;;;;;;;;;;;;;;;18.01;100.00;100271.50;3056143;19;1047;-50
2022/07/05 00:11:13;;;;;;;;;;;;;;;17.99;100.00;100268.94;3055568;19;936;-49
2022/07/05 00:12:14;;;;;;;;;;;;;;;17.98;100.00;100269.13;3055983;19;967;-50
2022/07/05 00:13:22;;;;;;;;;;;;;;;17.94;100.00;100270.38;3058027;19;894;-49
2022/07/05 00:14:24;;;;;;;;;;;;;;;17.92;100.00;100266.97;3058109;19;872;-50
2022/07/05 00:15:28;;;;;;;;;;;;;;;17.91;100.00;100270.69;3057911;19;1047;-49
2022/07/05 00:16:30;;;;;;;;;;;;;;;17.90;100.00;100269.81;3059304;19;932;-50
2022/07/05 00:17:35;;;;;;;;;;;;;;;17.87;100.00;100264.72;3059128;19;1723;-49
2022/07/05 00:18:39;;;;;;;;;;;;;;;17.87;100.00;100269.28;3058467;19;1846;-50
2022/07/05 00:19:41;;;;;;;;;;;;;;;17.87;100.00;100261.19;3058883;19;924;-50
2022/07/05 00:20:46;;;;;;;;;;;;;;;17.85;100.00;100272.13;3059702;19;825;-49
2022/07/05 00:21:48;;;;;;;;;;;;;;;17.84;100.00;100262.31;3058962;19;1008;-49
2022/07/05 00:22:52;;;;;;;;;;;;;;;17.83;100.00;100259.78;3058929;19;1397;-50
2022/07/05 00:23:54;;;;;;;;;;;;;;;17.82;100.00;100263.47;3059233;19;928;-50
2022/07/05 00:24:59;;;;;;;;;;;;;;;17.80;100.00;100263.59;3058988;19;1003;-49
2022/07/05 00:26:01;;;;;;;;;;;;;;;17.80;100.00;100262.75;3058979;19;968;-50
2022/07/05 00:27:05;;;;;;;;;;;;;;;17.80;100.00;100251.97;3058737;19;885;-50
2022/07/05 00:28:07;;;;;;;;;;;;;;;17.79;100.00;100253.81;3058626;19;944;-50
2022/07/05 00:29:11;;;;;;;;;;;;;;;17.79;100.00;100258.34;3059175;19;1098;-50
2022/07/05 00:30:13;;;;;;;;;;;;;;;17.79;100.00;100252.94;3058498;19;1412;-50
2022/07/05 00:31:18;;;;;;;;;;;;;;;17.78;100.00;100243.16;3058857;19;1113;-50
2022/07/05 00:32:20;;;;;;;;;;;;;;;17.77;100.00;100258.50;3058893;19;949;-50
2022/07/05 00:33:24;;;;;;;;;;;;;;;17.77;100.00;100252.25;3059133;19;814;-50
2022/07/05 00:34:26;;;;;;;;;;;;;;;17.79;100.00;100258.34;3057885;19;972;-49
2022/07/05 00:35:31;;;;;;;;;;;;;;;17.79;100.00;100258.34;3057887;19;945;-49
2022/07/05 00:36:33;;;;;;;;;;;;;;;17.80;100.00;100255.50;3057953;19;1043;-50
2022/07/05 00:37:39;;;;;;;;;;;;;;;17.82;100.00;100260.75;3058914;19;1120;-50
2022/07/05 00:38:41;;;;;;;;;;;;;;;17.82;100.00;100266.16;3057528;19;1890;-50
2022/07/05 00:39:45;;;;;;;;;;;;;;;17.82;100.00;100264.31;3058189;19;1048;-49
2022/07/05 00:40:47;;;;;;;;;;;;;;;17.83;100.00;100265.16;3058060;19;924;-50
2022/07/05 00:41:52;;;;;;;;;;;;;;;17.83;100.00;100273.28;3057115;19;968;-50
2022/07/05 00:42:54;;;;;;;;;;;;;;;17.84;100.00;100269.56;3057850;19;750;-49
2022/07/05 00:44:00;;;;;;;;;;;;;;;17.86;100.00;100270.28;3058353;19;1652;-50
2022/07/05 00:45:07;;;;;;;;;;;;;;;17.87;100.00;100275.50;3058635;19;865;-49
2022/07/05 00:46:10;;;;;;;;;;;;;;;17.88;100.00;100274.50;3058379;19;1014;-50
2022/07/05 00:47:14;;;;;;;;;;;;;;;17.87;100.00;100275.50;3058819;19;1058;-50
2022/07/05 00:48:16;;;;;;;;;;;;;;;17.90;100.00;100285.16;3057603;19;940;-50
2022/07/05 00:49:21;;;;;;;;;;;;;;;17.89;100.00;100278.06;3058170;19;963;-50
2022/07/05 00:50:22;;;;;;;;;;;;;;;17.91;100.00;100281.47;3057557;19;811;-50
2022/07/05 00:51:27;;;;;;;;;;;;;;;17.90;100.00;100279.78;3058546;19;1466;-50
2022/07/05 00:52:29;;;;;;;;;;;;;;;17.90;100.00;100286.03;3058301;19;959;-51
2022/07/05 00:53:34;;;;;;;;;;;;;;;17.90;100.00;100285.16;3058523;19;976;-50
2022/07/05 00:54:36;;;;;;;;;;;;;;;17.92;100.00;100288.59;3056389;19;1943;-50
2022/07/05 00:55:41;;;;;;;;;;;;;;;17.90;100.00;100291.41;3054881;19;1719;-49
2022/07/05 00:56:43;;;;;;;;;;;;;;;17.91;100.00;100297.69;3058056;19;1724;-50
2022/07/05 00:57:48;;;;;;;;;;;;;;;17.91;100.00;100298.53;3057538;19;1079;-50
2022/07/05 00:58:50;;;;;;;;;;;;;;;17.91;100.00;100297.69;3058201;19;1846;-50
2022/07/05 00:59:54;;;;;;;;;;;;;;;17.89;100.00;100305.91;3057518;19;1690;-49
2022/07/05 01:00:57;;;;;;;;;;;;;;;17.89;100.00;100305.91;3057243;19;1012;-49
2022/07/05 01:02:02;;;;;;;;;;;;;;;17.87;100.00;100313.31;3057401;19;1676;-51
2022/07/05 01:03:04;;;;;;;;;;;;;;;17.87;100.00;100312.47;3057238;19;1219;-50
2022/07/05 01:04:08;;;;;;;;;;;;;;;17.83;100.00;100311.06;3058415;19;860;-50
2022/07/05 01:05:10;;;;;;;;;;;;;;;17.84;100.00;100312.78;3058293;19;975;-49
2022/07/05 01:06:15;;;;;;;;;;;;;;;17.82;100.00;100306.66;3057773;19;1093;-49
2022/07/05 01:07:18;;;;;;;;;;;;;;;17.81;100.00;100308.50;3057173;19;1079;-51
2022/07/05 01:08:22;;;;;;;;;;;;;;;17.78;100.00;100297.13;3057702;19;1235;-49
2022/07/05 01:09:24;;;;;;;;;;;;;;;17.74;100.00;100306.53;3057201;19;870;-50
2022/07/05 01:10:29;;;;;;;;;;;;;;;17.73;100.00;100311.09;3057412;19;1624;-50
2022/07/05 01:11:31;;;;;;;;;;;;;;;17.72;100.00;100308.53;3058023;19;1103;-50
2022/07/05 01:12:35;;;;;;;;;;;;;;;17.70;100.00;100305.13;3058343;19;892;-49
2022/07/05 01:13:37;;;;;;;;;;;;;;;17.69;100.00;100315.06;3058247;19;932;-50
2022/07/05 01:14:43;;;;;;;;;;;;;;;17.66;100.00;100312.63;3058301;19;860;-49
2022/07/05 01:15:45;;;;;;;;;;;;;;;17.63;100.00;100313.78;3058211;19;969;-51
2022/07/05 01:16:51;;;;;;;;;;;;;;;17.59;100.00;100315.03;3057631;19;976;-49
2022/07/05 01:17:53;;;;;;;;;;;;;;;17.59;100.00;100315.03;3057045;19;1198;-49
2022/07/05 01:18:58;;;;;;;;;;;;;;;17.57;100.00;100306.22;3057502;19;915;-50
2022/07/05 01:20:00;;;;;;;;;;;;;;;17.55;100.00;100310.06;3057647;19;829;-50
2022/07/05 01:21:05;;;;;;;;;;;;;;;17.52;100.00;100311.19;3058370;19;900;-50
2022/07/05 01:22:10;;;;;;;;;;;;;;;17.49;100.00;100303.41;3057810;19;924;-50
2022/07/05 01:23:14;;;;;;;;;;;;;;;17.47;100.00;100308.09;3057920;19;948;-50
2022/07/05 01:24:17;;;;;;;;;;;;;;;17.45;100.00;100296.59;3057185;19;1405;-50
2022/07/05 01:25:22;;;;;;;;;;;;;;;17.42;100.00;100298.72;3058414;19;920;-51
2022/07/05 01:26:24;;;;;;;;;;;;;;;17.39;100.00;100299.03;3057914;19;1137;-49
2022/07/05 01:27:28;;;;;;;;;;;;;;;17.40;100.00;100298.00;3057460;19;858;-50
2022/07/05 01:28:30;;;;;;;;;;;;;;;17.39;100.00;100297.16;3057048;19;902;-50
2022/07/05 01:29:35;;;;;;;;;;;;;;;17.38;100.00;100295.47;3057339;19;915;-50
2022/07/05 01:30:37;;;;;;;;;;;;;;;17.39;100.00;100302.53;3056657;19;1011;-49
2022/07/05 01:31:44;;;;;;;;;;;;;;;17.37;100.00;100304.56;3057255;19;1087;-49
2022/07/05 01:32:46;;;;;;;;;;;;;;;17.36;100.00;100300.16;3056832;19;1706;-50
2022/07/05 01:33:51;;;;;;;;;;;;;;;17.37;100.00;100298.31;3057410;19;976;-50
2022/07/05 01:34:52;;;;;;;;;;;;;;;17.36;100.00;100302.00;3057119;19;1214;-50
2022/07/05 01:35:57;;;;;;;;;;;;;;;17.33;100.00;100297.72;3057253;19;928;-50
2022/07/05 01:36:59;;;;;;;;;;;;;;;17.34;100.00;100302.13;3057197;19;1055;-50
2022/07/05 01:38:04;;;;;;;;;;;;;;;17.34;100.00;100299.44;3057126;19;951;-50
2022/07/05 01:39:06;;;;;;;;;;;;;;;17.35;100.00;100295.75;3057098;19;884;-50
2022/07/05 01:40:11;;;;;;;;;;;;;;;17.38;100.00;100294.63;3056185;19;1850;-50
2022/07/05 01:41:12;;;;;;;;;;;;;;;17.39;100.00;100296.31;3057113;19;889;-49
2022/07/05 01:42:17;;;;;;;;;;;;;;;17.37;100.00;100298.31;3057080;19;986;-50
2022/07/05 01:43:19;;;;;;;;;;;;;;;17.37;100.00;100296.47;3057872;19;977;-49
2022/07/05 01:44:24;;;;;;;;;;;;;;;17.35;100.00;100290.34;3057979;19;877;-50
2022/07/05 01:45:41;;;;;;;;;;;;;;;17.31;100.00;100293.47;3058013;19;885;-49
2022/07/05 01:46:46;;;;;;;;;;;;;;;17.32;100.00;100296.03;3056816;19;980;-50
2022/07/05 01:47:48;;;;;;;;;;;;;;;17.26;100.00;100285.81;3057137;19;896;-49
2022/07/05 01:48:54;;;;;;;;;;;;;;;17.37;100.00;100301.00;3057349;19;895;-50
2022/07/05 01:49:57;;;;;;;;;;;;;;;17.36;100.00;100308.25;3057055;19;781;-50
2022/07/05 01:51:04;;;;;;;;;;;;;;;17.38;100.00;100311.66;3056760;19;860;-49
2022/07/05 01:52:09;;;;;;;;;;;;;;;17.39;100.00;100313.31;3057835;19;869;-51
2022/07/05 01:53:17;;;;;;;;;;;;;;;17.39;100.00;100318.72;3056950;19;891;-50
2022/07/05 01:54:19;;;;;;;;;;;;;;;17.39;100.00;100321.41;3056040;19;782;-50
2022/07/05 01:55:23;;;;;;;;;;;;;;;17.38;100.00;100317.06;3057580;19;932;-50
2022/07/05 01:56:25;;;;;;;;;;;;;;;17.37;100.00;100320.75;3057937;19;1094;-49
2022/07/05 01:57:30;;;;;;;;;;;;;;;17.37;100.00;100320.75;3056616;19;987;-51
2022/07/05 01:58:32;;;;;;;;;;;;;;;17.37;100.00;100304.56;3057093;19;1396;-49
2022/07/05 01:59:36;;;;;;;;;;;;;;;17.39;100.00;100307.13;3057611;19;1872;-51
2022/07/05 02:00:42;;;;;;;;;;;;;;;17.39;100.00;100307.94;3057414;19;1023;-50
2022/07/05 02:01:46;;;;;;;;;;;;;;;17.41;100.00;100311.34;3057359;19;991;-49
2022/07/05 02:02:49;;;;;;;;;;;;;;;17.42;100.00;100304.09;3057465;19;1776;-49
2022/07/05 02:03:53;;;;;;;;;;;;;;;17.45;100.00;100306.53;3057491;19;1327;-51
2022/07/05 02:05:01;;;;;;;;;;;;;;;17.47;100.00;100300.00;3056922;19;873;-50
2022/07/05 02:06:06;;;;;;;;;;;;;;;17.48;100.00;100307.09;3056325;19;1067;-50
2022/07/05 02:07:10;;;;;;;;;;;;;;;17.50;100.00;100307.81;3056677;19;916;-50
2022/07/05 02:08:14;;;;;;;;;;;;;;;17.52;100.00;100308.50;3056717;19;959;-50
2022/07/05 02:09:19;;;;;;;;;;;;;;;17.55;100.00;100312.75;3056418;19;1031;-50
2022/07/05 02:10:22;;;;;;;;;;;;;;;17.59;100.00;100303.41;3056586;19;927;-50
2022/07/05 02:11:26;;;;;;;;;;;;;;;17.62;100.00;100312.06;3056677;19;953;-51
2022/07/05 02:12:28;;;;;;;;;;;;;;;17.64;100.00;100318.19;3056906;19;1026;-50
2022/07/05 02:13:33;;;;;;;;;;;;;;;17.66;100.00;100314.50;3056614;19;1452;-50
2022/07/05 02:14:35;;;;;;;;;;;;;;;17.70;100.00;100318.59;3058560;19;1799;-49
2022/07/05 02:15:43;;;;;;;;;;;;;;;17.70;100.00;100315.91;3056087;19;984;-50
2022/07/05 02:16:45;;;;;;;;;;;;;;;17.72;100.00;100314.78;3056556;19;1031;-50
2022/07/05 02:17:50;;;;;;;;;;;;;;;17.70;100.00;100322.16;3056603;19;999;-51
2022/07/05 02:18:52;;;;;;;;;;;;;;;17.73;100.00;100315.63;3056551;19;1043;-50
2022/07/05 02:19:57;;;;;;;;;;;;;;;17.73;100.00;100321.03;3056454;19;1863;-50
2022/07/05 02:21:00;;;;;;;;;;;;;;;17.77;100.00;100327.81;3056503;19;1080;-51
2022/07/05 02:22:05;;;;;;;;;;;;;;;17.73;100.00;100331.81;3056459;19;960;-51
2022/07/05 02:23:07;;;;;;;;;;;;;;;17.76;100.00;100331.50;3056406;19;975;-50
2022/07/05 02:24:14;;;;;;;;;;;;;;;17.78;100.00;100324.97;3056279;19;1188;-51
2022/07/05 02:25:24;;;;;;;;;;;;;;;17.77;100.00;100327.81;3056290;19;1055;-51
2022/07/05 02:26:29;;;;;;;;;;;;;;;17.79;100.00;100326.69;3056782;19;908;-48
2022/07/05 02:27:32;;;;;;;;;;;;;;;17.76;100.00;100316.16;3056046;19;980;-50
2022/07/05 02:28:36;;;;;;;;;;;;;;;17.81;100.00;100323.84;3056364;19;988;-51
2022/07/05 02:29:38;;;;;;;;;;;;;;;17.82;100.00;100330.94;3056544;19;1229;-51
2022/07/05 02:30:43;;;;;;;;;;;;;;;17.80;100.00;100338.34;3056068;19;1466;-50
2022/07/05 02:31:45;;;;;;;;;;;;;;;17.83;100.00;100328.13;3056696;19;872;-50
2022/07/05 02:32:50;;;;;;;;;;;;;;;17.85;100.00;100336.06;3057101;19;1098;-49
2022/07/05 02:33:52;;;;;;;;;;;;;;;17.90;100.00;100339.16;3057309;19;896;-51
2022/07/05 02:34:58;;;;;;;;;;;;;;;17.93;100.00;100347.84;3055442;19;1019;-50
2022/07/05 02:36:10;;;;;;;;;;;;;;;17.97;100.00;100351.97;3055176;19;961;-50
2022/07/05 02:37:15;;;;;;;;;;;;;;;18.00;100.00;100345.41;3056025;19;969;-50
2022/07/05 02:38:16;;;;;;;;;;;;;;;18.02;100.00;100354.22;3056348;19;1630;-50
2022/07/05 02:39:21;;;;;;;;;;;;;;;18.04;100.00;100357.63;3056377;19;942;-51
2022/07/05 02:40:25;;;;;;;;;;;;;;;18.05;100.00;100353.94;3057071;19;1851;-51
2022/07/05 02:41:30;;;;;;;;;;;;;;;18.06;100.00;100357.47;3055880;19;924;-49
2022/07/05 02:42:31;;;;;;;;;;;;;;;18.07;100.00;100362.75;3056545;19;987;-50
2022/07/05 02:43:36;;;;;;;;;;;;;;;18.10;100.00;100357.06;3057147;19;954;-48
2022/07/05 02:44:39;;;;;;;;;;;;;;;18.12;100.00;100368.53;3056234;19;1291;-50
2022/07/05 02:45:45;;;;;;;;;;;;;;;18.21;100.00;100370.38;3056398;19;901;-50
2022/07/05 02:46:47;;;;;;;;;;;;;;;18.30;100.00;100374.91;3055979;19;1034;-50
2022/07/05 02:47:51;;;;;;;;;;;;;;;18.38;100.00;100376.84;3056201;19;968;-51
2022/07/05 02:48:53;;;;;;;;;;;;;;;18.43;100.00;100390.78;3056506;19;896;-49
2022/07/05 02:50:11;;;;;;;;;;;;;;;18.47;100.00;100402.16;3056413;19;1062;-50
2022/07/05 02:51:17;;;;;;;;;;;;;;;18.47;100.00;100396.75;3055390;19;1027;-50
2022/07/05 02:52:25;;;;;;;;;;;;;;;18.53;100.00;100406.97;3055993;19;1050;-51
2022/07/05 02:53:27;;;;;;;;;;;;;;;18.62;100.00;100419.63;3055711;19;855;-50
2022/07/05 02:54:33;;;;;;;;;;;;;;;18.64;100.00;100415.78;3056388;19;892;-50
2022/07/05 02:55:37;;;;;;;;;;;;;;;18.64;100.00;100420.34;3056179;19;893;-50
2022/07/05 02:56:42;;;;;;;;;;;;;;;18.64;100.00;100431.16;3055960;19;812;-50
2022/07/05 02:57:47;;;;;;;;;;;;;;;18.63;100.00;100432.13;3056181;19;872;-51
2022/07/05 02:58:53;;;;;;;;;;;;;;;18.75;100.00;100433.66;3056444;19;948;-50
2022/07/05 02:59:57;;;;;;;;;;;;;;;18.99;100.00;100438.53;3055791;19;1308;-50
2022/07/05 03:01:10;;;;;;;;;;;;;;;19.24;100.00;100450.50;3055446;19;1854;-50
2022/07/05 03:02:13;;;;;;;;;;;;;;;19.43;100.00;100456.69;3055803;19;1228;-50
2022/07/05 03:03:19;;;;;;;;;;;;;;;19.66;100.00;100462.53;3056200;19;907;-49
2022/07/05 03:04:21;;;;;;;;;;;;;;;19.97;100.00;100478.41;3055926;19;932;-50
2022/07/05 03:05:31;;;;;;;;;;;;;;;20.25;100.00;100488.16;3056300;19;940;-50
2022/07/05 03:06:39;;;;;;;;;;;;;;;20.45;100.00;100503.25;3055540;19;899;-50
2022/07/05 03:07:41;;;;;;;;;;;;;;;20.63;100.00;100507.78;3055645;19;1352;-52
2022/07/05 03:08:46;;;;;;;;;;;;;;;20.80;100.00;100524.00;3056159;19;922;-52
2022/07/05 03:09:48;;;;;;;;;;;;;;;20.77;100.00;100523.50;3056257;19;874;-50
2022/07/05 03:10:53;;;;;;;;;;;;;;;20.83;100.00;100544.53;3055860;19;951;-50
2022/07/05 03:11:55;;;;;;;;;;;;;;;21.02;100.00;100552.47;3055716;19;900;-51
2022/07/05 03:12:59;;;;;;;;;;;;;;;21.26;100.00;100556.34;3056149;19;861;-50
2022/07/05 03:14:01;;;;;;;;;;;;;;;21.51;100.00;100567.19;3055577;19;1038;-49
2022/07/05 03:15:06;;;;;;;;;;;;;;;21.47;100.00;100575.84;3055920;19;958;-53
2022/07/05 03:16:12;;;;;;;;;;;;;;;21.25;100.00;100582.69;3055585;19;1456;-50
2022/07/05 03:17:17;;;;;;;;;;;;;;;21.05;100.00;100587.41;3055966;19;976;-51
2022/07/05 03:18:19;;;;;;;;;;;;;;;20.88;100.00;100577.47;3055676;19;924;-50
2022/07/05 03:19:23;;;;;;;;;;;;;;;20.66;100.00;100564.41;3056109;19;982;-51
2022/07/05 03:20:25;;;;;;;;;;;;;;;20.56;100.00;100586.19;3056016;19;963;-52
2022/07/05 03:21:31;;;;;;;;;;;;;;;20.44;100.00;100574.75;3054954;19;1850;-49
2022/07/05 03:22:33;;;;;;;;;;;;;;;20.32;100.00;100573.25;3055493;19;1812;-51
2022/07/05 03:23:38;;;;;;;;;;;;;;;20.23;100.00;100567.91;3056081;19;1018;-50
2022/07/05 03:24:40;;;;;;;;;;;;;;;20.11;100.00;100570.00;3055841;19;873;-51
2022/07/05 03:25:48;;;;;;;;;;;;;;;20.03;100.00;100561.78;3056210;19;1026;-50
2022/07/05 03:26:50;;;;;;;;;;;;;;;19.96;100.00;100556.09;3055719;19;1142;-50
2022/07/05 03:27:55;;;;;;;;;;;;;;;19.89;100.00;100552.31;3055962;19;991;-51
2022/07/05 03:28:57;;;;;;;;;;;;;;;19.80;100.00;100546.97;3054646;19;1055;-51
2022/07/05 03:30:02;;;;;;;;;;;;;;;19.75;100.00;100542.84;3055529;19;1082;-49
2022/07/05 03:31:06;;;;;;;;;;;;;;;19.67;100.00;100540.06;3055417;19;983;-50
2022/07/05 03:32:15;;;;;;;;;;;;;;;19.65;100.00;100542.06;3055965;19;805;-50
2022/07/05 03:33:18;;;;;;;;;;;;;;;19.60;100.00;100538.94;3055425;19;996;-51
2022/07/05 03:34:24;;;;;;;;;;;;;;;19.55;100.00;100535.84;3055994;19;880;-51
2022/07/05 03:35:27;;;;;;;;;;;;;;;19.52;100.00;100538.84;3055592;19;814;-50
2022/07/05 03:36:32;;;;;;;;;;;;;;;19.49;100.00;100539.16;3055471;19;995;-49
2022/07/05 03:37:41;;;;;;;;;;;;;;;19.49;100.00;100546.41;3055320;19;1031;-50
2022/07/05 03:38:42;;;;;;;;;;;;;;;19.48;100.00;100534.72;3056049;19;947;-50
2022/07/05 03:39:48;;;;;;;;;;;;;;;19.49;100.00;100535.59;3054289;19;944;-50
2022/07/05 03:40:51;;;;;;;;;;;;;;;19.48;100.00;100531.16;3056802;19;1578;-50
2022/07/05 03:41:55;;;;;;;;;;;;;;;19.46;100.00;100531.28;3054754;19;1850;-50
2022/07/05 03:43:02;;;;;;;;;;;;;;;19.46;100.00;100530.44;3055642;19;881;-50
2022/07/05 03:44:08;;;;;;;;;;;;;;;19.45;100.00;100529.59;3055704;19;956;-51
2022/07/05 03:45:13;;;;;;;;;;;;;;;19.45;100.00;100535.00;3055400;19;901;-50
2022/07/05 03:46:15;;;;;;;;;;;;;;;19.43;100.00;100526.22;3055622;19;975;-52
2022/07/05 03:47:20;;;;;;;;;;;;;;;19.42;100.00;100535.31;3053824;19;1543;-50
2022/07/05 03:48:22;;;;;;;;;;;;;;;19.42;100.00;100524.50;3057451;19;925;-50
2022/07/05 03:49:44;;;;;;;;;;;;;;;19.44;100.00;100517.91;3055632;19;1036;-51
2022/07/05 03:50:47;;;;;;;;;;;;;;;19.48;100.00;100523.03;3054670;19;1188;-51
2022/07/05 03:51:52;;;;;;;;;;;;;;;19.42;100.00;100517.22;3054458;19;1186;-50
2022/07/05 03:52:54;;;;;;;;;;;;;;;19.47;100.00;100527.59;3055236;19;1168;-50
2022/07/05 03:53:59;;;;;;;;;;;;;;;19.47;100.00;100522.19;3055258;19;822;-50
2022/07/05 03:55:02;;;;;;;;;;;;;;;19.51;100.00;100536.31;3055763;19;1383;-51
2022/07/05 03:56:07;;;;;;;;;;;;;;;19.55;100.00;100535.00;3055331;19;1007;-50
2022/07/05 03:57:10;;;;;;;;;;;;;;;19.56;100.00;100537.53;3055481;19;877;-50
2022/07/05 03:58:14;;;;;;;;;;;;;;;19.55;100.00;100535.84;3055577;19;1095;-51
2022/07/05 03:59:17;;;;;;;;;;;;;;;19.56;100.00;100542.94;3055328;19;972;-51
2022/07/05 04:00:21;;;;;;;;;;;;;;;19.52;100.00;100538.84;3054725;19;2191;-51
2022/07/05 04:01:32;;;;;;;;;;;;;;;19.56;100.00;100550.25;3055068;19;1860;-49
2022/07/05 04:02:37;;;;;;;;;;;;;;;19.54;100.00;100544.97;3055161;19;1090;-51
2022/07/05 04:03:40;;;;;;;;;;;;;;;19.53;100.00;100548.69;3055222;19;865;-50
2022/07/05 04:04:47;;;;;;;;;;;;;;;19.53;100.00;100548.69;3054768;19;988;-50
2022/07/05 04:05:49;;;;;;;;;;;;;;;19.53;100.00;100558.66;3055126;19;944;-51
2022/07/05 04:06:54;;;;;;;;;;;;;;;19.51;100.00;100557.97;3056101;19;998;-51
2022/07/05 04:07:59;;;;;;;;;;;;;;;19.52;100.00;100565.06;3055282;19;913;-51
2022/07/05 04:09:14;;;;;;;;;;;;;;;19.52;100.00;100563.22;3054364;19;1615;-51
2022/07/05 04:10:16;;;;;;;;;;;;;;;19.53;100.00;100577.63;3055429;19;935;-50
2022/07/05 04:11:21;;;;;;;;;;;;;;;19.53;100.00;100575.75;3055221;19;976;-51
2022/07/05 04:12:26;;;;;;;;;;;;;;;19.54;100.00;100572.06;3055066;19;904;-51
2022/07/05 04:13:30;;;;;;;;;;;;;;;19.54;100.00;100574.75;3055127;19;1105;-50
2022/07/05 04:14:32;;;;;;;;;;;;;;;19.56;100.00;100575.44;3056010;19;1847;-49
2022/07/05 04:15:37;;;;;;;;;;;;;;;19.57;100.00;100571.72;3055676;19;1433;-51
2022/07/05 04:16:40;;;;;;;;;;;;;;;19.56;100.00;100578.16;3055102;19;912;-49
2022/07/05 04:17:48;;;;;;;;;;;;;;;19.58;100.00;100583.41;3055236;19;987;-51
2022/07/05 04:18:50;;;;;;;;;;;;;;;19.58;100.00;100588.81;3054908;19;877;-49
2022/07/05 04:19:55;;;;;;;;;;;;;;;19.58;100.00;100583.41;3055809;19;1063;-52
2022/07/05 04:20:57;;;;;;;;;;;;;;;19.57;100.00;100584.41;3054418;19;1770;-51
2022/07/05 04:22:02;;;;;;;;;;;;;;;19.57;100.00;100582.56;3056754;19;1865;-50
2022/07/05 04:23:04;;;;;;;;;;;;;;;19.61;100.00;100586.69;3054840;19;1004;-51
2022/07/05 04:24:10;;;;;;;;;;;;;;;19.62;100.00;100585.69;3055275;19;1027;-51
2022/07/05 04:25:18;;;;;;;;;;;;;;;19.67;100.00;100583.38;3055030;19;900;-51
2022/07/05 04:26:30;;;;;;;;;;;;;;;19.68;100.00;100595.91;3055112;19;1099;-49
2022/07/05 04:27:32;;;;;;;;;;;;;;;19.74;100.00;100594.47;3054787;19;976;-50
2022/07/05 04:28:36;;;;;;;;;;;;;;;19.78;100.00;100591.31;3055075;19;1764;-49
2022/07/05 04:29:42;;;;;;;;;;;;;;;19.86;100.00;100592.41;3054956;19;1035;-50
2022/07/05 04:30:47;;;;;;;;;;;;;;;19.95;100.00;100596.91;3054923;19;1091;-49
2022/07/05 04:31:52;;;;;;;;;;;;;;;20.02;100.00;100588.03;3054826;19;1047;-50
2022/07/05 04:32:55;;;;;;;;;;;;;;;20.14;100.00;100600.34;3055244;19;967;-50
2022/07/05 04:34:00;;;;;;;;;;;;;;;20.26;100.00;100595.56;3054551;19;894;-50
2022/07/05 04:35:05;;;;;;;;;;;;;;;20.40;100.00;100597.78;3055256;19;1036;-51
2022/07/05 04:36:10;;;;;;;;;;;;;;;20.54;100.00;100595.47;3054884;19;923;-52
2022/07/05 04:37:12;;;;;;;;;;;;;;;20.69;100.00;100608.34;3054944;19;1323;-49
2022/07/05 04:38:16;;;;;;;;;;;;;;;20.84;100.00;100605.94;3055062;19;857;-51
2022/07/05 04:39:20;;;;;;;;;;;;;;;20.97;100.00;100611.78;3054920;19;1241;-51
2022/07/05 04:40:33;;;;;;;;;;;;;;;21.12;100.00;100621.06;3054942;19;1095;-51
2022/07/05 04:41:35;;;;;;;;;;;;;;;21.26;100.00;100621.50;3054424;19;1394;-51
2022/07/05 04:42:42;;;;;;;;;;;;;;;21.36;100.00;100628.56;3054397;19;1858;-50
2022/07/05 04:43:46;;;;;;;;;;;;;;;21.48;100.00;100640.00;3054719;19;1168;-51
2022/07/05 04:44:51;;;;;;;;;;;;;;;21.57;100.00;100636.31;3054767;19;948;-51
2022/07/05 04:45:56;;;;;;;;;;;;;;;21.66;100.00;100640.75;3054387;19;933;-50
2022/07/05 04:46:59;;;;;;;;;;;;;;;21.73;100.00;100635.53;3054862;19;983;-50
2022/07/05 04:48:04;;;;;;;;;;;;;;;21.78;100.00;100644.03;3054606;19;905;-50
2022/07/05 04:49:07;;;;;;;;;;;;;;;21.82;100.00;100645.41;3054556;19;951;-50
2022/07/05 04:50:12;;;;;;;;;;;;;;;21.88;100.00;100648.31;3054509;19;1063;-49
2022/07/05 04:51:14;;;;;;;;;;;;;;;21.96;100.00;100646.66;3054604;19;1188;-51
2022/07/05 04:52:18;;;;;;;;;;;;;;;22.04;100.00;100654.88;3055598;19;1026;-49
2022/07/05 04:53:20;;;;;;;;;;;;;;;22.12;100.00;100657.63;3055572;19;868;-50
2022/07/05 04:54:25;;;;;;;;;;;;;;;22.23;100.00;100669.03;3055360;19;1058;-51
2022/07/05 04:55:27;;;;;;;;;;;;;;;22.37;100.00;100678.44;3055485;19;928;-49
2022/07/05 04:56:31;;;;;;;;;;;;;;;22.46;100.00;100671.97;3055347;19;1254;-50
2022/07/05 04:57:39;;;;;;;;;;;;;;;22.57;100.00;100677.13;3056672;19;1667;-51
2022/07/05 04:58:44;;;;;;;;;;;;;;;22.69;100.00;100679.53;3055900;19;1101;-50
2022/07/05 04:59:46;;;;;;;;;;;;;;;22.76;100.00;100675.13;3058566;19;813;-50
2022/07/05 05:00:51;;;;;;;;;;;;;;;22.80;100.00;100681.97;3059180;19;1167;-50
2022/07/05 05:01:53;;;;;;;;;;;;;;;22.82;100.00;100677.19;3058621;19;865;-51
2022/07/05 05:02:57;;;;;;;;;;;;;;;22.80;100.00;100674.66;3057219;19;1841;-50
2022/07/05 05:04:00;;;;;;;;;;;;;;;22.76;100.00;100666.97;3057814;19;956;-52
2022/07/05 05:05:05;;;;;;;;;;;;;;;22.68;100.00;100675.09;3057299;19;2210;-51
2022/07/05 05:06:07;;;;;;;;;;;;;;;22.59;100.00;100676.94;3058588;19;851;-49
2022/07/05 05:07:12;;;;;;;;;;;;;;;22.51;100.00;100677.78;3058504;19;979;-52
2022/07/05 05:08:14;;;;;;;;;;;;;;;22.40;100.00;100667.22;3058609;19;1154;-51
2022/07/05 05:09:19;;;;;;;;;;;;;;;22.30;100.00;100677.41;3058138;19;1043;-50
2022/07/05 05:10:21;;;;;;;;;;;;;;;22.22;100.00;100669.19;3058769;19;1094;-50
2022/07/05 05:11:25;;;;;;;;;;;;;;;22.16;100.00;100669.88;3058580;19;1032;-51
2022/07/05 05:12:27;;;;;;;;;;;;;;;22.12;100.00;100660.34;3058229;19;1351;-52
2022/07/05 05:13:31;;;;;;;;;;;;;;;22.11;100.00;100655.91;3057925;19;1397;-50
2022/07/05 05:14:33;;;;;;;;;;;;;;;22.10;100.00;100665.09;3058391;19;860;-50
2022/07/05 05:15:38;;;;;;;;;;;;;;;22.12;100.00;100653.03;3058217;19;956;-50
2022/07/05 05:16:39;;;;;;;;;;;;;;;22.18;100.00;100656.97;3058181;19;1054;-50
2022/07/05 05:17:45;;;;;;;;;;;;;;;22.25;100.00;100668.88;3057848;19;920;-51
2022/07/05 05:18:49;;;;;;;;;;;;;;;22.27;100.00;100659.53;3059333;19;1497;-50
2022/07/05 05:19:51;;;;;;;;;;;;;;;22.35;100.00;100666.84;3058459;19;1710;-50
2022/07/05 05:20:56;;;;;;;;;;;;;;;22.45;100.00;100670.31;3058405;19;1309;-52
2022/07/05 05:21:58;;;;;;;;;;;;;;;22.52;100.00;100660.44;3058282;19;972;-49
2022/07/05 05:23:02;;;;;;;;;;;;;;;22.51;100.00;100661.47;3057800;19;1842;-50
2022/07/05 05:24:04;;;;;;;;;;;;;;;22.68;100.00;100672.38;3058014;19;960;-51
2022/07/05 05:25:09;;;;;;;;;;;;;;;22.75;100.00;100674.25;3057965;19;1028;-51
2022/07/05 05:26:11;;;;;;;;;;;;;;;22.85;100.00;100680.41;3058186;19;920;-50
2022/07/05 05:27:15;;;;;;;;;;;;;;;22.86;100.00;100668.50;3057976;19;1306;-51
2022/07/05 05:28:17;;;;;;;;;;;;;;;23.05;100.00;100683.66;3058069;19;1218;-51
2022/07/05 05:29:22;;;;;;;;;;;;;;;23.20;100.00;100689.25;3058066;19;967;-52
2022/07/05 05:30:23;;;;;;;;;;;;;;;23.32;100.00;100675.13;3058432;19;809;-51
2022/07/05 05:31:28;;;;;;;;;;;;;;;23.42;100.00;100676.84;3058161;19;939;-50
2022/07/05 05:32:30;;;;;;;;;;;;;;;23.56;100.00;100687.03;3057739;19;1043;-51
2022/07/05 05:33:34;;;;;;;;;;;;;;;23.67;100.00;100689.38;3058000;19;897;-51